createdAt,value
2023-05-04T00:00:36.713Z,66037.13
2023-05-04T00:05:51.355Z,66040.34
2023-05-04T00:10:57.701Z,66041.59
2023-05-04T00:16:01.604Z,66019.03
2023-05-04T00:21:05.601Z,66030.25
2023-05-04T00:26:11.186Z,66015.91
2023-05-04T00:31:19.108Z,66025.53
2023-05-04T00:36:23.171Z,66029.19
2023-05-04T00:41:28.442Z,66125.06
2023-05-04T00:46:32.732Z,66058.84
2023-05-04T00:51:37.990Z,66057.75
2023-05-04T00:56:43.370Z,66042.56
2023-05-04T01:01:47.326Z,66041.84
2023-05-04T01:06:59.730Z,66043.03
2023-05-04T01:12:08.418Z,66062.56
2023-05-04T01:17:13.045Z,66054.72
2023-05-04T01:22:18.458Z,66033.47
2023-05-04T01:27:27.613Z,66124.06
2023-05-04T01:32:33.118Z,66166.31
2023-05-04T01:37:38.576Z,66123.47
2023-05-04T01:42:42.546Z,66159.88
2023-05-04T01:47:49.750Z,66188.38
2023-05-04T01:52:55.166Z,66138.97
2023-05-04T01:57:59.094Z,66082.56
2023-05-04T02:03:03.172Z,66108.97
2023-05-04T02:08:08.793Z,66060.34
2023-05-04T02:13:12.862Z,66047.41
2023-05-04T02:18:16.959Z,66052.22
2023-05-04T02:23:22.433Z,66064.00
2023-05-04T02:28:26.374Z,66078.56
2023-05-04T02:33:30.331Z,66085.97
2023-05-04T02:38:35.976Z,66087.56
2023-05-04T02:43:40.824Z,66063.38
2023-05-04T02:48:44.762Z,66052.31
2023-05-04T02:53:50.413Z,66038.38
2023-05-04T02:58:54.298Z,66043.19
2023-05-04T03:03:58.468Z,66042.50
2023-05-04T03:09:04.531Z,66057.56
2023-05-04T03:14:08.602Z,66104.88
2023-05-04T03:19:12.588Z,66190.44
2023-05-04T03:24:19.389Z,66216.31
2023-05-04T03:29:24.525Z,66271.41
2023-05-04T03:34:28.865Z,66168.91
2023-05-04T03:39:39.376Z,66138.97
2023-05-04T03:44:44.883Z,66170.16
2023-05-04T03:49:49.031Z,66156.13
2023-05-04T03:54:54.761Z,66156.13
2023-05-04T03:59:58.859Z,66180.78
2023-05-04T04:05:04.606Z,66223.75
2023-05-04T04:10:11.823Z,66254.88
2023-05-04T04:15:16.161Z,66219.47
2023-05-04T04:20:20.319Z,66216.69
2023-05-04T04:25:25.860Z,66224.91
2023-05-04T04:30:29.971Z,66289.19
2023-05-04T04:35:33.927Z,66364.75
2023-05-04T04:40:39.486Z,66383.63
2023-05-04T04:45:45.318Z,66336.31
2023-05-04T04:50:49.703Z,66380.31
2023-05-04T04:55:55.286Z,66358.31
2023-05-04T05:00:59.456Z,66450.13
2023-05-04T05:06:04.175Z,66490.56
2023-05-04T05:11:09.734Z,66447.44
2023-05-04T05:16:13.953Z,66430.25
2023-05-04T05:21:17.958Z,66431.50
2023-05-04T05:26:24.876Z,66282.66
2023-05-04T05:31:28.826Z,66288.56
2023-05-04T05:36:32.933Z,66328.97
2023-05-04T05:41:38.266Z,66279.47
2023-05-04T05:46:43.494Z,66296.06
2023-05-04T05:51:48.052Z,66339.63
2023-05-04T05:56:53.399Z,66409.03
2023-05-04T06:01:57.343Z,66386.84
2023-05-04T06:07:01.428Z,66299.31
2023-05-04T06:12:12.344Z,66400.25
2023-05-04T06:17:17.479Z,66532.00
2023-05-04T06:22:21.574Z,66545.38
2023-05-04T06:27:28.993Z,66554.53
2023-05-04T06:32:32.985Z,66550.06
2023-05-04T06:37:36.911Z,66529.16
2023-05-04T06:42:42.384Z,66616.34
2023-05-04T06:47:46.801Z,66699.09
2023-05-04T06:52:50.835Z,66620.03
2023-05-04T06:57:56.186Z,66591.00
2023-05-04T07:03:00.071Z,66540.91
2023-05-04T07:08:04.385Z,66488.41
2023-05-04T07:13:10.535Z,66511.53
2023-05-04T07:18:14.556Z,66514.66
2023-05-04T07:23:18.642Z,66545.28
2023-05-04T07:28:24.172Z,66603.34
2023-05-04T07:33:28.495Z,66635.53
2023-05-04T07:38:32.495Z,66605.50
2023-05-04T07:43:37.875Z,66674.72
2023-05-04T07:48:41.801Z,66725.94
2023-05-04T07:53:45.759Z,66692.03
2023-05-04T07:58:51.805Z,66691.47
2023-05-04T08:03:55.840Z,66791.66
2023-05-04T08:08:59.837Z,66700.25
2023-05-04T08:14:05.127Z,66771.19
2023-05-04T08:19:09.983Z,66605.41
2023-05-04T08:24:14.281Z,66678.72
2023-05-04T08:29:21.194Z,66663.56
2023-05-04T08:34:28.000Z,66760.97
2023-05-04T08:39:32.067Z,66756.59
2023-05-04T08:46:14.413Z,66770.66
2023-05-04T08:51:19.060Z,66629.16
2023-05-04T08:56:25.197Z,66612.50
2023-05-04T09:01:32.855Z,66706.09
2023-05-04T09:06:37.208Z,66729.84
2023-05-04T09:11:41.411Z,66802.41
2023-05-04T09:20:01.788Z,66694.88
2023-05-04T09:25:10.499Z,66692.19
2023-05-04T09:30:14.578Z,66661.97
2023-05-04T09:35:33.088Z,66710.78
2023-05-04T09:40:41.167Z,66838.66
2023-05-04T09:45:46.921Z,66788.97
2023-05-04T09:50:54.649Z,66827.28
2023-05-04T09:56:08.178Z,66919.22
2023-05-04T10:01:12.679Z,66851.91
2023-05-04T10:06:18.276Z,66824.06
2023-05-04T10:11:25.811Z,66805.56
2023-05-04T10:16:37.999Z,66772.81
2023-05-04T10:21:58.955Z,66896.75
2023-05-04T10:27:10.387Z,66834.81
2023-05-04T10:32:21.802Z,66815.28
2023-05-04T10:37:27.246Z,66837.97
2023-05-04T10:42:42.973Z,66874.53
2023-05-04T10:47:46.847Z,66904.28
2023-05-04T10:52:54.163Z,66954.28
2023-05-04T10:57:58.625Z,66969.50
2023-05-04T11:03:04.502Z,67022.81
2023-05-04T11:08:18.543Z,67029.91
2023-05-04T11:13:22.548Z,67210.06
2023-05-04T11:18:31.098Z,67035.28
2023-05-04T11:23:36.903Z,66905.44
2023-05-04T11:28:40.912Z,67246.72
2023-05-04T11:33:48.857Z,67445.69
2023-05-04T11:38:58.491Z,67525.16
2023-05-04T11:44:03.298Z,67504.00
2023-05-04T11:49:07.643Z,67645.91
2023-05-04T11:54:22.941Z,67438.16
2023-05-04T11:59:26.976Z,67480.19
2023-05-04T12:04:34.063Z,67321.25
2023-05-04T12:09:48.031Z,67403.94
2023-05-04T12:14:53.255Z,67534.97
2023-05-04T12:19:58.333Z,67434.78
2023-05-04T12:25:03.661Z,67528.41
2023-05-04T12:30:09.248Z,67493.78
2023-05-04T12:35:13.222Z,67494.81
2023-05-04T12:40:28.232Z,67567.94
2023-05-04T12:45:32.957Z,67532.19
2023-05-04T12:50:36.976Z,67499.13
2023-05-04T12:55:43.041Z,67542.00
2023-05-04T13:00:47.151Z,67529.53
2023-05-04T13:05:53.321Z,67396.91
2023-05-04T13:10:58.897Z,67360.28
2023-05-04T13:16:03.260Z,67466.72
2023-05-04T13:21:07.564Z,67530.56
2023-05-04T13:26:12.849Z,67521.50
2023-05-04T13:31:17.135Z,67647.00
2023-05-04T13:36:21.206Z,67620.38
2023-05-04T13:41:26.803Z,67742.81
2023-05-04T13:46:30.816Z,67722.81
2023-05-04T13:51:35.168Z,67672.94
2023-05-04T13:56:40.514Z,67684.84
2023-05-04T14:01:44.430Z,67748.22
2023-05-04T14:06:49.928Z,67725.03
2023-05-04T14:11:55.228Z,67663.38
2023-05-04T14:16:59.286Z,67689.25
2023-05-04T14:22:03.155Z,67711.38
2023-05-04T14:27:08.512Z,67479.69
2023-05-04T14:32:12.495Z,67432.13
2023-05-04T14:37:16.838Z,67589.56
2023-05-04T14:42:25.209Z,67576.03
2023-05-04T14:47:30.113Z,67411.59
2023-05-04T14:52:34.051Z,67486.75
2023-05-04T14:57:39.465Z,67602.00
2023-05-04T15:02:43.443Z,67611.69
2023-05-04T15:07:47.460Z,67682.16
2023-05-04T15:12:53.002Z,67658.31
2023-05-04T15:17:57.191Z,67588.44
2023-05-04T15:23:03.423Z,67630.03
2023-05-04T15:28:10.941Z,67681.59
2023-05-04T15:33:15.229Z,67652.88
2023-05-04T15:38:19.154Z,67639.91
2023-05-04T15:43:24.457Z,67641.47
2023-05-04T15:48:28.785Z,67561.94
2023-05-04T15:53:32.694Z,67645.78
2023-05-04T15:58:38.066Z,67453.16
2023-05-04T16:03:42.273Z,67390.44
2023-05-04T16:08:46.404Z,67211.66
2023-05-04T16:13:53.211Z,67088.63
2023-05-04T16:18:57.185Z,66976.59
2023-05-04T16:24:01.078Z,66932.19
2023-05-04T16:29:06.883Z,66877.38
2023-05-04T16:34:10.560Z,66868.13
2023-05-04T16:39:14.672Z,66934.94
2023-05-04T16:44:19.973Z,66896.75
2023-05-04T16:49:24.129Z,66885.44
2023-05-04T16:54:28.087Z,66870.75
2023-05-04T16:59:33.450Z,66817.44
2023-05-04T17:04:37.333Z,66849.81
2023-05-04T17:09:41.301Z,66787.34
2023-05-04T17:14:47.277Z,66820.28
2023-05-04T17:19:51.750Z,66802.41
2023-05-04T17:24:55.774Z,66780.34
2023-05-04T17:30:01.165Z,66807.88
2023-05-04T17:35:15.940Z,66679.19
2023-05-04T17:40:24.792Z,66641.06
2023-05-04T17:45:30.248Z,66611.88
2023-05-04T17:50:34.226Z,66598.53
2023-05-04T17:55:38.133Z,66564.75
2023-05-04T18:00:43.499Z,66630.16
2023-05-04T18:05:47.401Z,66592.53
2023-05-04T18:10:51.696Z,66575.84
2023-05-04T18:15:57.055Z,66608.28
2023-05-04T18:21:01.517Z,66592.59
2023-05-04T18:26:05.494Z,66586.69
2023-05-04T18:31:10.919Z,66603.34
2023-05-04T18:36:14.959Z,66644.75
2023-05-04T18:41:18.939Z,66604.34
2023-05-04T18:46:24.791Z,66572.72
2023-05-04T18:51:29.048Z,66497.41
2023-05-04T18:56:34.194Z,66485.66
2023-05-04T19:01:39.715Z,66446.91
2023-05-04T19:06:43.684Z,66519.34
2023-05-04T19:11:47.806Z,66510.91
2023-05-04T19:16:53.117Z,66505.00
2023-05-04T19:21:57.011Z,66460.97
2023-05-04T19:27:01.090Z,66488.88
2023-05-04T19:32:19.920Z,66471.69
2023-05-04T19:37:27.137Z,66517.28
2023-05-04T19:42:31.083Z,66486.13
2023-05-04T19:47:38.403Z,66462.47
2023-05-04T19:52:42.309Z,66402.94
2023-05-04T19:57:47.745Z,66389.53
2023-05-04T20:02:53.352Z,66483.97
2023-05-04T20:07:57.652Z,66400.81
2023-05-04T20:13:01.681Z,66436.09
2023-05-04T20:18:07.282Z,66419.50
2023-05-04T20:23:11.351Z,66388.47
2023-05-04T20:28:16.561Z,66372.28
2023-05-04T20:33:21.820Z,66330.94
2023-05-04T20:38:26.058Z,66345.44
2023-05-04T20:43:29.958Z,66412.63
2023-05-04T20:48:35.586Z,66342.84
2023-05-04T20:53:39.540Z,66374.94
2023-05-04T20:58:43.478Z,66535.53
2023-05-04T21:03:49.064Z,66551.66
2023-05-04T21:08:53.118Z,66593.59
2023-05-04T21:13:57.039Z,66566.28
2023-05-04T21:19:02.416Z,66473.31
2023-05-04T21:24:06.866Z,66457.47
2023-05-04T21:29:14.240Z,66493.78
2023-05-04T21:34:19.696Z,66498.09
2023-05-04T21:39:23.708Z,66419.06
2023-05-04T21:44:28.055Z,66422.38
2023-05-04T21:49:33.506Z,66417.84
2023-05-04T21:54:37.399Z,66419.69
2023-05-04T21:59:41.303Z,66477.06
2023-05-04T22:04:46.698Z,66486.19
2023-05-04T22:09:50.546Z,66482.88
2023-05-04T22:14:54.549Z,66442.06
2023-05-04T22:19:59.965Z,66400.16
2023-05-04T22:25:03.869Z,66418.00
2023-05-04T22:30:09.794Z,66401.63
2023-05-04T22:35:15.280Z,66409.50
2023-05-04T22:40:19.126Z,66419.97
2023-05-04T22:45:23.218Z,66456.03
2023-05-04T22:50:28.900Z,66422.81
2023-05-04T22:55:32.920Z,66313.31
2023-05-04T23:00:36.758Z,66305.72
2023-05-04T23:05:42.401Z,66321.91
2023-05-04T23:10:46.622Z,66327.19
2023-05-04T23:15:50.724Z,66348.66
2023-05-04T23:20:55.972Z,66291.25
2023-05-04T23:25:59.918Z,66239.84
2023-05-04T23:31:04.012Z,66190.97
2023-05-04T23:36:09.784Z,66169.53
2023-05-04T23:41:13.933Z,66206.16
2023-05-04T23:46:17.852Z,66167.38
2023-05-04T23:51:23.120Z,66082.75
2023-05-04T23:56:27.420Z,66051.16
